createdAt,value
2019-05-28T00:01:05.658Z,99898.31
2019-05-28T00:03:31.854Z,99901.84
2019-05-28T00:05:58.047Z,99894.86
2019-05-28T00:08:24.476Z,99894.88
2019-05-28T00:10:50.746Z,99897.03
2019-05-28T00:13:16.937Z,99897.48
2019-05-28T00:15:43.635Z,99893.11
2019-05-28T00:18:09.721Z,99889.63
2019-05-28T00:20:35.833Z,99889.61
2019-05-28T00:23:02.095Z,99892.23
2019-05-28T00:25:29.352Z,99887.89
2019-05-28T00:27:55.581Z,99887.44
2019-05-28T00:30:21.992Z,99882.64
2019-05-28T00:32:48.086Z,99881.75
2019-05-28T00:35:14.997Z,99879.61
2019-05-28T00:37:42.255Z,99883.45
2019-05-28T00:40:08.928Z,99880.84
2019-05-28T00:42:35.243Z,99881.64
2019-05-28T00:45:01.942Z,99886.87
2019-05-28T00:47:28.357Z,99877.24
2019-05-28T00:49:54.649Z,99881.19
2019-05-28T00:52:20.823Z,99877.26
2019-05-28T00:54:47.110Z,99876.30
2019-05-28T00:57:14.906Z,99877.53
2019-05-28T00:59:42.671Z,99874.52
2019-05-28T01:02:08.782Z,99871.00
2019-05-28T01:04:35.060Z,99877.05
2019-05-28T01:07:01.151Z,99874.42
2019-05-28T01:09:27.734Z,99870.70
2019-05-28T01:11:53.917Z,99872.47
2019-05-28T01:14:20.147Z,99874.23
2019-05-28T01:16:46.321Z,99864.56
2019-05-28T01:19:12.542Z,99865.86
2019-05-28T01:21:38.648Z,99867.05
2019-05-28T01:24:04.877Z,99870.53
2019-05-28T01:26:31.080Z,99868.17
2019-05-28T01:28:57.170Z,99864.19
2019-05-28T01:31:23.467Z,99867.73
2019-05-28T01:33:49.551Z,99860.32
2019-05-28T01:36:15.788Z,99859.95
2019-05-28T01:38:42.016Z,99853.45
2019-05-28T01:41:08.630Z,99856.92
2019-05-28T01:43:34.912Z,99850.37
2019-05-28T01:46:01.139Z,99861.70
2019-05-28T01:48:27.257Z,99851.27
2019-05-28T01:50:53.337Z,99854.78
2019-05-28T01:53:19.422Z,99853.16
2019-05-28T01:55:45.638Z,99851.56
2019-05-28T01:58:12.840Z,99854.66
2019-05-28T02:00:38.971Z,99854.23
2019-05-28T02:03:05.163Z,99853.39
2019-05-28T02:05:31.464Z,99850.30
2019-05-28T02:07:57.675Z,99848.59
2019-05-28T02:10:23.987Z,99851.97
2019-05-28T02:12:50.211Z,99852.09
2019-05-28T02:15:16.991Z,99850.80
2019-05-28T02:17:43.152Z,99848.55
2019-05-28T02:20:09.693Z,99846.78
2019-05-28T02:22:36.020Z,99843.05
2019-05-28T02:25:05.013Z,99845.63
2019-05-28T02:27:31.215Z,99840.83
2019-05-28T02:29:57.323Z,99845.50
2019-05-28T02:32:23.518Z,99850.43
2019-05-28T02:34:49.637Z,99843.08
2019-05-28T02:37:17.753Z,99841.05
2019-05-28T02:39:43.888Z,99834.89
2019-05-28T02:42:10.108Z,99834.89
2019-05-28T02:44:36.177Z,99839.66
2019-05-28T02:47:02.489Z,99836.76
2019-05-28T02:49:28.591Z,99835.30
2019-05-28T02:51:54.873Z,99831.05
2019-05-28T02:54:21.072Z,99831.96
2019-05-28T02:56:47.969Z,99839.40
2019-05-28T02:59:15.805Z,99835.27
2019-05-28T03:01:44.588Z,99832.55
2019-05-28T03:04:13.141Z,99833.56
2019-05-28T03:06:40.042Z,99833.56
2019-05-28T03:09:06.350Z,99840.63
2019-05-28T03:11:32.552Z,99841.93
2019-05-28T03:13:58.994Z,99840.67
2019-05-28T03:16:28.884Z,99838.50
2019-05-28T03:18:56.884Z,99835.88
2019-05-28T03:21:25.122Z,99838.04
2019-05-28T03:23:55.040Z,99839.66
2019-05-28T03:26:23.656Z,99844.02
2019-05-28T03:28:49.465Z,99837.98
2019-05-28T03:31:15.732Z,99837.52
2019-05-28T03:33:42.042Z,99844.10
2019-05-28T03:36:10.946Z,99843.70
2019-05-28T03:38:38.265Z,99844.89
2019-05-28T03:41:04.525Z,99844.89
2019-05-28T03:43:30.610Z,99846.19
2019-05-28T03:45:56.809Z,99847.97
2019-05-28T03:48:22.886Z,99851.02
2019-05-28T03:50:49.105Z,99851.04
2019-05-28T03:53:15.280Z,99851.06
2019-05-28T03:55:41.406Z,99850.22
2019-05-28T03:58:07.584Z,99854.63
2019-05-28T04:00:33.793Z,99850.67
2019-05-28T04:02:59.976Z,99851.04
2019-05-28T04:05:26.420Z,99847.58
2019-05-28T04:07:52.740Z,99850.13
2019-05-28T04:10:19.033Z,99854.08
2019-05-28T04:12:45.251Z,99849.44
2019-05-28T04:15:11.643Z,99854.71
2019-05-28T04:17:37.733Z,99854.73
2019-05-28T04:20:04.834Z,99852.12
2019-05-28T04:22:30.933Z,99853.50
2019-05-28T04:24:57.071Z,99856.13
2019-05-28T04:27:23.264Z,99848.82
2019-05-28T04:29:49.495Z,99855.87
2019-05-28T04:32:15.702Z,99857.62
2019-05-28T04:34:41.912Z,99859.31
2019-05-28T04:37:08.031Z,99863.69
2019-05-28T04:39:35.509Z,99857.57
2019-05-28T04:42:01.831Z,99865.35
2019-05-28T04:44:27.957Z,99861.87
2019-05-28T04:46:54.062Z,99866.75
2019-05-28T04:49:20.175Z,99868.17
2019-05-28T04:51:46.277Z,99872.58
2019-05-28T04:54:12.586Z,99867.41
2019-05-28T04:56:38.687Z,99867.43
2019-05-28T04:59:04.883Z,99863.99
2019-05-28T05:01:31.092Z,99866.21
2019-05-28T05:03:57.312Z,99871.02
2019-05-28T05:06:23.527Z,99868.89
2019-05-28T05:08:49.787Z,99873.70
2019-05-28T05:11:16.074Z,99872.81
2019-05-28T05:13:42.337Z,99867.62
2019-05-28T05:16:08.493Z,99878.03
2019-05-28T05:18:34.711Z,99876.23
2019-05-28T05:21:00.931Z,99876.28
2019-05-28T05:23:27.020Z,99875.00
2019-05-28T05:25:53.137Z,99882.44
2019-05-28T05:28:20.681Z,99874.17
2019-05-28T05:30:46.771Z,99879.41
2019-05-28T05:33:19.670Z,99873.78
2019-05-28T05:35:41.196Z,99877.72
2019-05-28T05:38:07.526Z,99887.75
2019-05-28T05:40:33.583Z,99886.91
2019-05-28T05:42:59.877Z,99896.52
2019-05-28T05:45:26.200Z,99898.30
2019-05-28T05:47:52.515Z,99899.20
2019-05-28T05:50:19.049Z,99905.31
2019-05-28T05:52:45.167Z,99900.08
2019-05-28T05:55:11.784Z,99900.52
2019-05-28T05:57:37.999Z,99912.30
2019-05-28T06:00:05.525Z,99903.52
2019-05-28T06:02:32.831Z,99904.83
2019-05-28T06:04:59.292Z,99902.64
2019-05-28T06:07:25.626Z,99900.02
2019-05-28T06:09:51.844Z,99899.14
2019-05-28T06:12:18.265Z,99901.72
2019-05-28T06:14:44.451Z,99902.61
2019-05-28T06:17:10.625Z,99902.59
2019-05-28T06:19:36.815Z,99907.81
2019-05-28T06:22:03.465Z,99907.83
2019-05-28T06:24:29.654Z,99909.14
2019-05-28T06:26:55.762Z,99900.41
2019-05-28T06:29:21.965Z,99899.11
2019-05-28T06:31:48.195Z,99902.18
2019-05-28T06:34:14.337Z,99905.26
2019-05-28T06:36:40.470Z,99904.39
2019-05-28T06:39:06.681Z,99906.97
2019-05-28T06:41:32.800Z,99911.73
2019-05-28T06:43:59.042Z,99910.41
2019-05-28T06:46:25.259Z,99906.48
2019-05-28T06:48:51.337Z,99914.73
2019-05-28T06:51:17.442Z,99920.85
2019-05-28T06:53:43.763Z,99913.90
2019-05-28T06:56:09.864Z,99913.83
2019-05-28T06:58:40.020Z,99919.06
2019-05-28T07:01:04.620Z,99919.91
2019-05-28T07:03:30.820Z,99924.70
2019-05-28T07:06:07.389Z,99920.73
2019-05-28T07:08:25.174Z,99918.14
2019-05-28T07:10:57.546Z,99921.14
2019-05-28T07:13:19.479Z,99915.48
2019-05-28T07:15:45.616Z,99918.02
2019-05-28T07:18:11.840Z,99923.23
2019-05-28T07:20:38.088Z,99918.92
2019-05-28T07:23:04.311Z,99917.19
2019-05-28T07:25:30.741Z,99916.80
2019-05-28T07:28:10.438Z,99915.49
2019-05-28T07:30:25.077Z,99916.38
2019-05-28T07:32:51.264Z,99915.98
2019-05-28T07:35:17.455Z,99915.98
2019-05-28T07:37:43.568Z,99913.84
2019-05-28T07:40:10.164Z,99909.03
2019-05-28T07:42:36.402Z,99908.13
2019-05-28T07:45:04.785Z,99903.30
2019-05-28T07:47:30.910Z,99909.47
2019-05-28T07:49:57.128Z,99909.50
2019-05-28T07:52:23.323Z,99907.31
2019-05-28T07:54:49.420Z,99916.45
2019-05-28T07:57:15.650Z,99906.88
2019-05-28T07:59:41.847Z,99904.28
2019-05-28T08:02:08.141Z,99900.83
2019-05-28T08:04:46.715Z,99905.22
2019-05-28T08:07:02.883Z,99900.02
2019-05-28T08:09:29.082Z,99903.05
2019-05-28T08:11:55.219Z,99895.67
2019-05-28T08:14:21.490Z,99901.86
2019-05-28T08:16:52.688Z,99906.23
2019-05-28T08:19:15.655Z,99908.82
2019-05-28T08:21:41.997Z,99903.17
2019-05-28T08:24:08.317Z,99909.70
2019-05-28T08:26:34.545Z,99911.90
2019-05-28T08:29:00.769Z,99904.44
2019-05-28T08:31:27.116Z,99904.42
2019-05-28T08:33:53.522Z,99905.68
2019-05-28T08:36:19.808Z,99900.75
2019-05-28T08:38:45.955Z,99899.02
2019-05-28T08:41:12.265Z,99900.73
2019-05-28T08:43:38.618Z,99893.72
2019-05-28T08:46:04.854Z,99897.70
2019-05-28T08:48:31.312Z,99903.71
2019-05-28T08:50:57.650Z,99903.20
2019-05-28T08:53:23.723Z,99903.34
2019-05-28T08:55:50.160Z,99903.41
2019-05-28T08:58:16.256Z,99905.86
2019-05-28T09:00:43.297Z,99904.48
2019-05-28T09:03:09.779Z,99905.28
2019-05-28T09:05:36.276Z,99905.89
2019-05-28T09:08:03.259Z,99908.19
2019-05-28T09:10:29.530Z,99906.08
2019-05-28T09:12:55.747Z,99913.36
2019-05-28T09:15:22.060Z,99911.89
2019-05-28T09:17:48.290Z,99906.88
2019-05-28T09:20:14.799Z,99909.34
2019-05-28T09:22:40.993Z,99915.86
2019-05-28T09:25:07.314Z,99908.06
2019-05-28T09:27:33.551Z,99908.01
2019-05-28T09:29:59.736Z,99909.22
2019-05-28T09:32:25.945Z,99915.50
2019-05-28T09:34:52.058Z,99908.52
2019-05-28T09:37:18.176Z,99917.52
2019-05-28T09:39:44.396Z,99919.09
2019-05-28T09:42:10.573Z,99915.65
2019-05-28T09:44:36.783Z,99924.60
2019-05-28T09:47:03.144Z,99927.45
2019-05-28T09:49:29.253Z,99928.89
2019-05-28T09:51:55.448Z,99925.94
2019-05-28T09:54:21.679Z,99931.20
2019-05-28T09:56:47.975Z,99931.94
2019-05-28T09:59:14.269Z,99931.83
2019-05-28T10:01:40.756Z,99931.23
2019-05-28T10:04:06.956Z,99928.05
2019-05-28T10:06:37.151Z,99927.48
2019-05-28T10:09:01.205Z,99925.61
2019-05-28T10:11:28.080Z,99931.02
2019-05-28T10:13:54.378Z,99933.96
2019-05-28T10:16:20.664Z,99929.66
2019-05-28T10:18:46.758Z,99930.08
2019-05-28T10:21:18.706Z,99936.03
2019-05-28T10:23:42.249Z,99932.59
2019-05-28T10:26:08.491Z,99931.42
2019-05-28T10:28:34.769Z,99931.84
2019-05-28T10:31:00.993Z,99935.00
2019-05-28T10:33:27.433Z,99930.25
2019-05-28T10:35:53.611Z,99929.56
2019-05-28T10:38:19.925Z,99936.33
2019-05-28T10:40:46.053Z,99936.90
2019-05-28T10:43:12.151Z,99938.02
2019-05-28T10:45:38.480Z,99934.27
2019-05-28T10:48:04.777Z,99941.64
2019-05-28T10:50:31.176Z,99943.23
2019-05-28T10:52:57.529Z,99945.36
2019-05-28T10:55:23.743Z,99940.23
2019-05-28T10:57:50.052Z,99945.02
2019-05-28T11:00:17.350Z,99949.06
2019-05-28T11:02:43.556Z,99948.80
2019-05-28T11:05:11.870Z,99945.91
2019-05-28T11:07:38.179Z,99947.03
2019-05-28T11:10:22.462Z,99949.59
2019-05-28T11:12:34.409Z,99952.45
2019-05-28T11:15:00.523Z,99946.98
2019-05-28T11:17:26.771Z,99957.20
2019-05-28T11:19:52.917Z,99956.47
2019-05-28T11:22:19.285Z,99954.45
2019-05-28T11:24:45.460Z,99962.24
2019-05-28T11:27:11.674Z,99954.30
2019-05-28T11:29:37.823Z,99956.43
2019-05-28T11:32:04.127Z,99963.93
2019-05-28T11:34:30.316Z,99961.80
2019-05-28T11:37:08.718Z,99962.70
2019-05-28T11:39:24.799Z,99963.09
2019-05-28T11:41:50.893Z,99959.04
2019-05-28T11:44:17.142Z,99958.88
2019-05-28T11:46:43.217Z,99958.00
2019-05-28T11:49:09.329Z,99960.77
2019-05-28T11:51:35.502Z,99968.45
2019-05-28T11:54:01.708Z,99972.45
2019-05-28T11:56:27.990Z,99961.26
2019-05-28T11:58:54.122Z,99961.11
2019-05-28T12:01:33.653Z,99976.36
2019-05-28T12:03:48.383Z,99970.02
2019-05-28T12:06:14.631Z,99976.63
2019-05-28T12:08:40.947Z,99970.19
2019-05-28T12:11:07.203Z,99975.80
2019-05-28T12:13:33.335Z,99967.66
2019-05-28T12:15:59.530Z,99967.12
2019-05-28T12:18:25.813Z,99971.06
2019-05-28T12:20:52.001Z,99971.13
2019-05-28T12:23:18.250Z,99972.78
2019-05-28T12:25:44.466Z,99983.86
2019-05-28T12:28:10.653Z,99983.80
2019-05-28T12:30:36.990Z,99989.61
2019-05-28T12:33:03.668Z,99991.73
2019-05-28T12:35:30.492Z,99992.69
2019-05-28T12:37:57.053Z,99994.27
2019-05-28T12:40:23.950Z,99999.12
2019-05-28T12:42:50.177Z,100005.14
2019-05-28T12:45:33.924Z,100010.59
2019-05-28T12:48:04.524Z,100015.95
2019-05-28T12:50:19.687Z,100017.38
2019-05-28T12:52:46.797Z,100018.66
2019-05-28T12:55:11.808Z,100028.38
2019-05-28T12:57:38.154Z,100015.47
2019-05-28T13:00:08.951Z,100026.96
2019-05-28T13:02:35.392Z,100026.94
2019-05-28T13:05:03.996Z,100030.42
2019-05-28T13:07:30.124Z,100039.66
2019-05-28T13:09:56.204Z,100041.94
2019-05-28T13:12:22.419Z,100048.08
2019-05-28T13:14:49.857Z,100049.82
2019-05-28T13:17:16.275Z,100042.44
2019-05-28T13:19:42.695Z,100047.37
2019-05-28T13:22:09.204Z,100053.55
2019-05-28T13:24:35.500Z,100055.39
2019-05-28T13:27:17.782Z,100054.50
2019-05-28T13:29:31.275Z,100061.48
2019-05-28T13:31:57.507Z,100064.16
2019-05-28T13:34:26.467Z,100067.23
2019-05-28T13:36:53.002Z,100073.81
2019-05-28T13:39:20.427Z,100081.67
2019-05-28T13:41:46.676Z,100087.82
2019-05-28T13:44:12.868Z,100094.82
2019-05-28T13:46:39.076Z,100097.44
2019-05-28T13:49:05.194Z,100104.84
2019-05-28T13:51:31.379Z,100107.05
2019-05-28T13:53:58.598Z,100108.38
2019-05-28T13:56:24.704Z,100117.52
2019-05-28T13:58:51.115Z,100110.52
2019-05-28T14:01:17.313Z,100118.82
2019-05-28T14:03:43.545Z,100124.51
2019-05-28T14:06:09.877Z,100128.87
2019-05-28T14:08:46.709Z,100128.86
2019-05-28T14:11:04.490Z,100143.28
2019-05-28T14:13:30.819Z,100145.47
2019-05-28T14:15:56.933Z,100152.05
2019-05-28T14:18:23.294Z,100159.46
2019-05-28T14:20:49.703Z,100165.98
2019-05-28T14:23:16.019Z,100170.30
2019-05-28T14:25:43.040Z,100169.88
2019-05-28T14:28:09.473Z,100174.61
2019-05-28T14:30:35.972Z,100171.56
2019-05-28T14:33:02.382Z,100170.72
2019-05-28T14:35:28.739Z,100170.67
2019-05-28T14:37:55.043Z,100174.16
2019-05-28T14:40:24.469Z,100175.02
2019-05-28T14:42:49.535Z,100179.84
2019-05-28T14:45:16.143Z,100181.57
2019-05-28T14:47:43.361Z,100185.48
2019-05-28T14:50:10.297Z,100182.86
2019-05-28T14:52:36.799Z,100190.30
2019-05-28T14:55:08.320Z,100185.49
2019-05-28T14:57:34.529Z,100195.96
2019-05-28T15:00:00.898Z,100190.30
2019-05-28T15:02:27.071Z,100195.95
2019-05-28T15:04:53.495Z,100190.24
2019-05-28T15:07:19.625Z,100189.77
2019-05-28T15:09:46.171Z,100198.03
2019-05-28T15:12:12.513Z,100199.34
2019-05-28T15:14:39.618Z,100201.06
2019-05-28T15:17:05.781Z,100197.56
2019-05-28T15:19:32.091Z,100201.16
2019-05-28T15:21:58.446Z,100198.53
2019-05-28T15:24:24.954Z,100199.87
2019-05-28T15:26:51.117Z,100202.50
2019-05-28T15:29:17.238Z,100193.34
2019-05-28T15:31:43.435Z,100195.08
2019-05-28T15:34:10.343Z,100188.56
2019-05-28T15:36:36.416Z,100192.09
2019-05-28T15:39:04.814Z,100193.41
2019-05-28T15:41:31.136Z,100207.27
2019-05-28T15:43:57.414Z,100208.09
2019-05-28T15:46:23.681Z,100203.80
2019-05-28T15:48:49.917Z,100206.44
2019-05-28T15:51:16.233Z,100209.45
2019-05-28T15:53:42.459Z,100216.45
2019-05-28T15:56:08.681Z,100210.83
2019-05-28T15:58:34.856Z,100215.20
2019-05-28T16:01:01.304Z,100213.47
2019-05-28T16:03:27.784Z,100223.13
2019-05-28T16:05:54.195Z,100223.08
2019-05-28T16:08:20.556Z,100224.00
2019-05-28T16:10:46.788Z,100231.02
2019-05-28T16:13:13.012Z,100229.31
2019-05-28T16:15:39.392Z,100236.73
2019-05-28T16:18:05.643Z,100240.63
2019-05-28T16:20:31.844Z,100241.13
2019-05-28T16:22:58.076Z,100247.66
2019-05-28T16:25:24.149Z,100249.36
2019-05-28T16:27:50.366Z,100253.80
2019-05-28T16:30:16.885Z,100254.62
2019-05-28T16:32:42.968Z,100260.30
2019-05-28T16:35:09.435Z,100264.25
2019-05-28T16:37:35.756Z,100265.55
2019-05-28T16:40:15.090Z,100266.86
2019-05-28T16:42:37.054Z,100269.02
2019-05-28T16:45:05.681Z,100268.59
2019-05-28T16:47:31.892Z,100272.94
2019-05-28T16:49:57.965Z,100272.09
2019-05-28T16:52:24.180Z,100284.30
2019-05-28T16:54:50.294Z,100288.18
2019-05-28T16:57:16.421Z,100290.80
2019-05-28T16:59:42.499Z,100296.02
2019-05-28T17:02:08.729Z,100300.83
2019-05-28T17:04:34.871Z,100301.25
2019-05-28T17:07:01.104Z,100309.44
2019-05-28T17:09:27.465Z,100306.81
2019-05-28T17:11:53.762Z,100308.53
2019-05-28T17:14:19.900Z,100314.64
2019-05-28T17:16:46.111Z,100315.52
2019-05-28T17:19:12.534Z,100311.66
2019-05-28T17:21:38.748Z,100312.94
2019-05-28T17:24:05.066Z,100317.78
2019-05-28T17:26:31.415Z,100328.61
2019-05-28T17:28:57.538Z,100324.59
2019-05-28T17:31:23.856Z,100326.45
2019-05-28T17:33:50.066Z,100332.92
2019-05-28T17:36:16.304Z,100337.26
2019-05-28T17:38:42.551Z,100340.69
2019-05-28T17:41:08.650Z,100350.23
2019-05-28T17:43:35.061Z,100350.22
2019-05-28T17:46:01.261Z,100360.20
2019-05-28T17:48:27.377Z,100362.34
2019-05-28T17:50:53.456Z,100369.36
2019-05-28T17:53:19.678Z,100369.34
2019-05-28T17:55:45.806Z,100372.83
2019-05-28T17:58:12.064Z,100375.36
2019-05-28T18:00:38.223Z,100373.64
2019-05-28T18:03:04.346Z,100374.50
2019-05-28T18:05:30.624Z,100381.28
2019-05-28T18:07:57.037Z,100386.20
2019-05-28T18:10:23.355Z,100382.98
2019-05-28T18:12:49.450Z,100395.18
2019-05-28T18:15:15.875Z,100404.31
2019-05-28T18:17:42.116Z,100403.00
2019-05-28T18:20:08.647Z,100405.19
2019-05-28T18:22:34.952Z,100414.80
2019-05-28T18:25:01.177Z,100415.17
2019-05-28T18:27:27.297Z,100417.33
2019-05-28T18:29:53.571Z,100415.88
2019-05-28T18:32:19.778Z,100421.14
2019-05-28T18:34:45.893Z,100422.97
2019-05-28T18:37:12.012Z,100432.55
2019-05-28T18:39:38.147Z,100435.08
2019-05-28T18:42:04.362Z,100437.76
2019-05-28T18:44:30.714Z,100440.37
2019-05-28T18:46:56.853Z,100443.83
2019-05-28T18:49:23.366Z,100454.35
2019-05-28T18:51:49.494Z,100463.91
2019-05-28T18:54:15.930Z,100461.27
2019-05-28T18:56:42.379Z,100465.50
2019-05-28T18:59:08.781Z,100468.55
2019-05-28T19:01:35.163Z,100473.00
2019-05-28T19:04:01.426Z,100479.06
2019-05-28T19:06:27.633Z,100483.50
2019-05-28T19:08:53.862Z,100484.03
2019-05-28T19:11:20.021Z,100497.58
2019-05-28T19:13:46.243Z,100497.03
2019-05-28T19:16:12.669Z,100504.37
2019-05-28T19:18:39.003Z,100507.89
2019-05-28T19:21:05.158Z,100511.84
2019-05-28T19:23:31.362Z,100520.99
2019-05-28T19:25:58.558Z,100524.58
2019-05-28T19:28:24.867Z,100521.06
2019-05-28T19:30:51.311Z,100529.70
2019-05-28T19:33:17.748Z,100534.93
2019-05-28T19:35:45.382Z,100544.08
2019-05-28T19:38:12.856Z,100550.65
2019-05-28T19:40:41.939Z,100562.84
2019-05-28T19:43:08.255Z,100568.94
2019-05-28T19:45:35.078Z,100569.74
2019-05-28T19:48:01.419Z,100575.20
2019-05-28T19:50:27.767Z,100576.55
2019-05-28T19:52:56.889Z,100582.97
2019-05-28T19:55:22.297Z,100581.73
2019-05-28T19:57:48.637Z,100591.98
2019-05-28T20:00:15.536Z,100590.77
2019-05-28T20:02:41.885Z,100598.08
2019-05-28T20:05:09.521Z,100603.59
2019-05-28T20:07:35.744Z,100611.47
2019-05-28T20:10:04.572Z,100622.80
2019-05-28T20:12:30.659Z,100616.89
2019-05-28T20:14:56.782Z,100625.21
2019-05-28T20:17:22.908Z,100628.75
2019-05-28T20:19:51.395Z,100625.80
2019-05-28T20:22:17.359Z,100634.06
2019-05-28T20:24:43.484Z,100638.41
2019-05-28T20:27:09.590Z,100630.83
2019-05-28T20:29:35.685Z,100644.46
2019-05-28T20:32:03.107Z,100651.38
2019-05-28T20:34:29.350Z,100654.76
2019-05-28T20:36:55.444Z,100661.58
2019-05-28T20:39:21.657Z,100674.58
2019-05-28T20:41:47.735Z,100674.91
2019-05-28T20:44:13.843Z,100675.31
2019-05-28T20:46:40.148Z,100677.85
2019-05-28T20:49:06.785Z,100679.44
2019-05-28T20:51:33.080Z,100680.38
2019-05-28T20:53:59.326Z,100679.39
2019-05-28T20:56:25.493Z,100684.56
2019-05-28T20:58:51.812Z,100681.77
2019-05-28T21:01:17.838Z,100682.27
2019-05-28T21:03:43.952Z,100687.92
2019-05-28T21:06:10.280Z,100690.47
2019-05-28T21:08:36.431Z,100699.70
2019-05-28T21:11:02.867Z,100694.70
2019-05-28T21:13:29.074Z,100702.22
2019-05-28T21:15:55.176Z,100712.33
2019-05-28T21:18:21.266Z,100709.05
2019-05-28T21:20:47.449Z,100715.30
2019-05-28T21:23:13.600Z,100710.55
2019-05-28T21:25:39.694Z,100710.55
2019-05-28T21:28:05.888Z,100721.23
2019-05-28T21:30:32.072Z,100728.19
2019-05-28T21:32:58.814Z,100728.63
2019-05-28T21:35:26.057Z,100727.14
2019-05-28T21:37:53.066Z,100742.84
2019-05-28T21:40:19.820Z,100742.84
2019-05-28T21:42:58.430Z,100747.16
2019-05-28T21:45:14.836Z,100760.50
2019-05-28T21:47:41.201Z,100760.50
2019-05-28T21:50:08.061Z,100758.20
2019-05-28T21:52:36.298Z,100764.61
2019-05-28T21:55:05.168Z,100768.38
2019-05-28T21:57:31.245Z,100773.14
2019-05-28T21:59:58.116Z,100773.14
2019-05-28T22:02:24.523Z,100789.66
2019-05-28T22:04:50.620Z,100783.65
2019-05-28T22:07:17.039Z,100783.65
2019-05-28T22:09:44.483Z,100791.12
2019-05-28T22:12:10.578Z,100790.03
2019-05-28T22:14:36.771Z,100790.03
2019-05-28T22:17:04.113Z,100797.76
2019-05-28T22:19:30.961Z,100799.34
2019-05-28T22:21:58.337Z,100807.16
2019-05-28T22:24:24.531Z,100813.51
2019-05-28T22:26:50.627Z,100812.63
2019-05-28T22:29:17.391Z,100818.27
2019-05-28T22:31:43.477Z,100822.25
2019-05-28T22:34:09.695Z,100828.77
2019-05-28T22:36:35.778Z,100828.88
2019-05-28T22:39:06.603Z,100827.40
2019-05-28T22:41:38.354Z,100829.66
2019-05-28T22:44:05.377Z,100842.06
2019-05-28T22:46:31.655Z,100849.02
2019-05-28T22:48:57.740Z,100846.69
2019-05-28T22:51:23.951Z,100855.03
2019-05-28T22:53:50.045Z,100847.98
2019-05-28T22:56:16.238Z,100852.25
2019-05-28T22:58:42.323Z,100855.79
2019-05-28T23:01:08.783Z,100856.94
2019-05-28T23:03:34.950Z,100864.23
2019-05-28T23:06:01.161Z,100869.83
2019-05-28T23:08:27.312Z,100866.55
2019-05-28T23:10:56.757Z,100872.97
2019-05-28T23:13:21.475Z,100874.45
2019-05-28T23:15:47.631Z,100878.63
2019-05-28T23:18:13.704Z,100881.06
2019-05-28T23:20:39.784Z,100883.99
2019-05-28T23:23:05.903Z,100886.33
2019-05-28T23:25:33.037Z,100887.05
2019-05-28T23:27:59.156Z,100887.72
2019-05-28T23:30:25.761Z,100893.52
2019-05-28T23:32:53.010Z,100895.89
2019-05-28T23:35:19.069Z,100906.28
2019-05-28T23:37:45.259Z,100907.59
2019-05-28T23:40:11.617Z,100907.31
2019-05-28T23:42:37.715Z,100916.92
2019-05-28T23:45:06.201Z,100917.34
2019-05-28T23:47:32.468Z,100918.86
2019-05-28T23:49:58.553Z,100922.55
2019-05-28T23:52:24.624Z,100924.09
2019-05-28T23:54:50.714Z,100926.01
2019-05-28T23:57:16.781Z,100924.73
2019-05-28T23:59:42.985Z,100930.36
